Index of /20260506/WXO-DD/model_rdps/10km/00/000
Name Last modified Size Description
Parent Directory -
20260506T00Z_MSC_RDPS_AbsoluteVorticity_IsbL-0250_RLatLon0.09_PT000H.grib2 2026-05-06 02:40 629K
20260506T00Z_MSC_RDPS_AbsoluteVorticity_IsbL-0500_RLatLon0.09_PT000H.grib2 2026-05-06 02:40 594K
20260506T00Z_MSC_RDPS_AbsoluteVorticity_IsbL-0700_RLatLon0.09_PT000H.grib2 2026-05-06 02:40 647K
20260506T00Z_MSC_RDPS_AbsoluteVorticity_IsbL-0850_RLatLon0.09_PT000H.grib2 2026-05-06 02:40 670K
20260506T00Z_MSC_RDPS_AirTemp_AGL-120m_RLatLon0.09_PT000H.grib2 2026-05-06 02:40 363K
20260506T00Z_MSC_RDPS_AirTemp_AGL-2m_RLatLon0.09_PT000H.grib2 2026-05-06 02:40 515K
20260506T00Z_MSC_RDPS_AirTemp_AGL-40m_RLatLon0.09_PT000H.grib2 2026-05-06 02:40 377K
20260506T00Z_MSC_RDPS_AirTemp_AGL-80m_RLatLon0.09_PT000H.grib2 2026-05-06 02:40 368K
20260506T00Z_MSC_RDPS_AirTemp_IsbL-0001_RLatLon0.09_PT000H.grib2 2026-05-06 02:40 289K
20260506T00Z_MSC_RDPS_AirTemp_IsbL-0005_RLatLon0.09_PT000H.grib2 2026-05-06 02:40 259K
20260506T00Z_MSC_RDPS_AirTemp_IsbL-0010_RLatLon0.09_PT000H.grib2 2026-05-06 02:40 267K
20260506T00Z_MSC_RDPS_AirTemp_IsbL-0020_RLatLon0.09_PT000H.grib2 2026-05-06 02:40 278K
20260506T00Z_MSC_RDPS_AirTemp_IsbL-0030_RLatLon0.09_PT000H.grib2 2026-05-06 02:40 292K
20260506T00Z_MSC_RDPS_AirTemp_IsbL-0050_RLatLon0.09_PT000H.grib2 2026-05-06 02:40 276K
20260506T00Z_MSC_RDPS_AirTemp_IsbL-0100_RLatLon0.09_PT000H.grib2 2026-05-06 02:40 367K
20260506T00Z_MSC_RDPS_AirTemp_IsbL-0150_RLatLon0.09_PT000H.grib2 2026-05-06 02:40 351K
20260506T00Z_MSC_RDPS_AirTemp_IsbL-0175_RLatLon0.09_PT000H.grib2 2026-05-06 02:40 345K
20260506T00Z_MSC_RDPS_AirTemp_IsbL-0200_RLatLon0.09_PT000H.grib2 2026-05-06 02:40 349K
20260506T00Z_MSC_RDPS_AirTemp_IsbL-0225_RLatLon0.09_PT000H.grib2 2026-05-06 02:40 351K
20260506T00Z_MSC_RDPS_AirTemp_IsbL-0250_RLatLon0.09_PT000H.grib2 2026-05-06 02:40 355K
20260506T00Z_MSC_RDPS_AirTemp_IsbL-0275_RLatLon0.09_PT000H.grib2 2026-05-06 02:40 342K
20260506T00Z_MSC_RDPS_AirTemp_IsbL-0300_RLatLon0.09_PT000H.grib2 2026-05-06 02:40 350K
20260506T00Z_MSC_RDPS_AirTemp_IsbL-0350_RLatLon0.09_PT000H.grib2 2026-05-06 02:40 379K
20260506T00Z_MSC_RDPS_AirTemp_IsbL-0400_RLatLon0.09_PT000H.grib2 2026-05-06 02:40 383K
20260506T00Z_MSC_RDPS_AirTemp_IsbL-0450_RLatLon0.09_PT000H.grib2 2026-05-06 02:40 389K
20260506T00Z_MSC_RDPS_AirTemp_IsbL-0500_RLatLon0.09_PT000H.grib2 2026-05-06 02:40 398K
20260506T00Z_MSC_RDPS_AirTemp_IsbL-0550_RLatLon0.09_PT000H.grib2 2026-05-06 02:40 412K
20260506T00Z_MSC_RDPS_AirTemp_IsbL-0600_RLatLon0.09_PT000H.grib2 2026-05-06 02:40 427K
20260506T00Z_MSC_RDPS_AirTemp_IsbL-0650_RLatLon0.09_PT000H.grib2 2026-05-06 02:40 404K
20260506T00Z_MSC_RDPS_AirTemp_IsbL-0700_RLatLon0.09_PT000H.grib2 2026-05-06 02:40 331K
20260506T00Z_MSC_RDPS_AirTemp_IsbL-0750_RLatLon0.09_PT000H.grib2 2026-05-06 02:40 356K
20260506T00Z_MSC_RDPS_AirTemp_IsbL-0800_RLatLon0.09_PT000H.grib2 2026-05-06 02:40 389K
20260506T00Z_MSC_RDPS_AirTemp_IsbL-0850_RLatLon0.09_PT000H.grib2 2026-05-06 02:40 429K
20260506T00Z_MSC_RDPS_AirTemp_IsbL-0875_RLatLon0.09_PT000H.grib2 2026-05-06 02:40 442K
20260506T00Z_MSC_RDPS_AirTemp_IsbL-0900_RLatLon0.09_PT000H.grib2 2026-05-06 02:40 444K
20260506T00Z_MSC_RDPS_AirTemp_IsbL-0925_RLatLon0.09_PT000H.grib2 2026-05-06 02:40 441K
20260506T00Z_MSC_RDPS_AirTemp_IsbL-0950_RLatLon0.09_PT000H.grib2 2026-05-06 02:40 438K
20260506T00Z_MSC_RDPS_AirTemp_IsbL-0970_RLatLon0.09_PT000H.grib2 2026-05-06 02:40 434K
20260506T00Z_MSC_RDPS_AirTemp_IsbL-0985_RLatLon0.09_PT000H.grib2 2026-05-06 02:40 425K
20260506T00Z_MSC_RDPS_AirTemp_IsbL-1000_RLatLon0.09_PT000H.grib2 2026-05-06 02:40 414K
20260506T00Z_MSC_RDPS_AirTemp_IsbL-1015_RLatLon0.09_PT000H.grib2 2026-05-06 02:40 417K
20260506T00Z_MSC_RDPS_Albedo_Sfc_RLatLon0.09_PT000H.grib2 2026-05-06 02:40 155K
20260506T00Z_MSC_RDPS_CAPE_Sfc_RLatLon0.09_PT000H.grib2 2026-05-06 02:40 1.6M
20260506T00Z_MSC_RDPS_CIN_Sfc_RLatLon0.09_PT000H.grib2 2026-05-06 02:40 1.3M
20260506T00Z_MSC_RDPS_CloudWater_EAtm_RLatLon0.09_PT000H.grib2 2026-05-06 02:40 204K
20260506T00Z_MSC_RDPS_DewPointDepression_AGL-2m_RLatLon0.09_PT000H.grib2 2026-05-06 02:40 329K
20260506T00Z_MSC_RDPS_DewPointDepression_IsbL-0001_RLatLon0.09_PT000H.grib2 2026-05-06 02:40 193
20260506T00Z_MSC_RDPS_DewPointDepression_IsbL-0005_RLatLon0.09_PT000H.grib2 2026-05-06 02:40 193
20260506T00Z_MSC_RDPS_DewPointDepression_IsbL-0010_RLatLon0.09_PT000H.grib2 2026-05-06 02:40 193
20260506T00Z_MSC_RDPS_DewPointDepression_IsbL-0020_RLatLon0.09_PT000H.grib2 2026-05-06 02:40 193
20260506T00Z_MSC_RDPS_DewPointDepression_IsbL-0030_RLatLon0.09_PT000H.grib2 2026-05-06 02:40 193
20260506T00Z_MSC_RDPS_DewPointDepression_IsbL-0050_RLatLon0.09_PT000H.grib2 2026-05-06 02:40 73K
20260506T00Z_MSC_RDPS_DewPointDepression_IsbL-0100_RLatLon0.09_PT000H.grib2 2026-05-06 02:40 103K
20260506T00Z_MSC_RDPS_DewPointDepression_IsbL-0150_RLatLon0.09_PT000H.grib2 2026-05-06 02:40 127K
20260506T00Z_MSC_RDPS_DewPointDepression_IsbL-0175_RLatLon0.09_PT000H.grib2 2026-05-06 02:40 161K
20260506T00Z_MSC_RDPS_DewPointDepression_IsbL-0200_RLatLon0.09_PT000H.grib2 2026-05-06 02:40 194K
20260506T00Z_MSC_RDPS_DewPointDepression_IsbL-0225_RLatLon0.09_PT000H.grib2 2026-05-06 02:40 222K
20260506T00Z_MSC_RDPS_DewPointDepression_IsbL-0250_RLatLon0.09_PT000H.grib2 2026-05-06 02:40 259K
20260506T00Z_MSC_RDPS_DewPointDepression_IsbL-0275_RLatLon0.09_PT000H.grib2 2026-05-06 02:40 270K
20260506T00Z_MSC_RDPS_DewPointDepression_IsbL-0300_RLatLon0.09_PT000H.grib2 2026-05-06 02:40 285K
20260506T00Z_MSC_RDPS_DewPointDepression_IsbL-0350_RLatLon0.09_PT000H.grib2 2026-05-06 02:40 293K
20260506T00Z_MSC_RDPS_DewPointDepression_IsbL-0400_RLatLon0.09_PT000H.grib2 2026-05-06 02:40 304K
20260506T00Z_MSC_RDPS_DewPointDepression_IsbL-0450_RLatLon0.09_PT000H.grib2 2026-05-06 02:40 306K
20260506T00Z_MSC_RDPS_DewPointDepression_IsbL-0500_RLatLon0.09_PT000H.grib2 2026-05-06 02:40 311K
20260506T00Z_MSC_RDPS_DewPointDepression_IsbL-0550_RLatLon0.09_PT000H.grib2 2026-05-06 02:40 320K
20260506T00Z_MSC_RDPS_DewPointDepression_IsbL-0600_RLatLon0.09_PT000H.grib2 2026-05-06 02:40 328K
20260506T00Z_MSC_RDPS_DewPointDepression_IsbL-0650_RLatLon0.09_PT000H.grib2 2026-05-06 02:40 331K
20260506T00Z_MSC_RDPS_DewPointDepression_IsbL-0700_RLatLon0.09_PT000H.grib2 2026-05-06 02:40 340K
20260506T00Z_MSC_RDPS_DewPointDepression_IsbL-0750_RLatLon0.09_PT000H.grib2 2026-05-06 02:40 355K
20260506T00Z_MSC_RDPS_DewPointDepression_IsbL-0800_RLatLon0.09_PT000H.grib2 2026-05-06 02:40 375K
20260506T00Z_MSC_RDPS_DewPointDepression_IsbL-0850_RLatLon0.09_PT000H.grib2 2026-05-06 02:40 398K
20260506T00Z_MSC_RDPS_DewPointDepression_IsbL-0875_RLatLon0.09_PT000H.grib2 2026-05-06 02:40 393K
20260506T00Z_MSC_RDPS_DewPointDepression_IsbL-0900_RLatLon0.09_PT000H.grib2 2026-05-06 02:40 382K
20260506T00Z_MSC_RDPS_DewPointDepression_IsbL-0925_RLatLon0.09_PT000H.grib2 2026-05-06 02:40 371K
20260506T00Z_MSC_RDPS_DewPointDepression_IsbL-0950_RLatLon0.09_PT000H.grib2 2026-05-06 02:40 362K
20260506T00Z_MSC_RDPS_DewPointDepression_IsbL-0970_RLatLon0.09_PT000H.grib2 2026-05-06 02:40 358K
20260506T00Z_MSC_RDPS_DewPointDepression_IsbL-0985_RLatLon0.09_PT000H.grib2 2026-05-06 02:40 355K
20260506T00Z_MSC_RDPS_DewPointDepression_IsbL-1000_RLatLon0.09_PT000H.grib2 2026-05-06 02:40 350K
20260506T00Z_MSC_RDPS_DewPointDepression_IsbL-1015_RLatLon0.09_PT000H.grib2 2026-05-06 02:40 341K
20260506T00Z_MSC_RDPS_DewPoint_AGL-2m_RLatLon0.09_PT000H.grib2 2026-05-06 02:40 252K
20260506T00Z_MSC_RDPS_DownwardLongwaveRadiationFlux-Accum_Sfc_RLatLon0.09_PT000H.grib2 2026-05-06 02:40 217
20260506T00Z_MSC_RDPS_DownwardShortwaveRadiationFlux-Accum_NTAtm_RLatLon0.09_PT000H.grib2 2026-05-06 02:40 217
20260506T00Z_MSC_RDPS_DownwardShortwaveRadiationFlux-Accum_Sfc_RLatLon0.09_PT000H.grib2 2026-05-06 02:40 217
20260506T00Z_MSC_RDPS_GeopotentialHeight_IsbL-0001_RLatLon0.09_PT000H.grib2 2026-05-06 02:40 369K
20260506T00Z_MSC_RDPS_GeopotentialHeight_IsbL-0005_RLatLon0.09_PT000H.grib2 2026-05-06 02:40 366K
20260506T00Z_MSC_RDPS_GeopotentialHeight_IsbL-0010_RLatLon0.09_PT000H.grib2 2026-05-06 02:40 337K
20260506T00Z_MSC_RDPS_GeopotentialHeight_IsbL-0020_RLatLon0.09_PT000H.grib2 2026-05-06 02:40 336K
20260506T00Z_MSC_RDPS_GeopotentialHeight_IsbL-0030_RLatLon0.09_PT000H.grib2 2026-05-06 02:40 338K
20260506T00Z_MSC_RDPS_GeopotentialHeight_IsbL-0050_RLatLon0.09_PT000H.grib2 2026-05-06 02:40 337K
20260506T00Z_MSC_RDPS_GeopotentialHeight_IsbL-0100_RLatLon0.09_PT000H.grib2 2026-05-06 02:40 292K
20260506T00Z_MSC_RDPS_GeopotentialHeight_IsbL-0150_RLatLon0.09_PT000H.grib2 2026-05-06 02:40 228K
20260506T00Z_MSC_RDPS_GeopotentialHeight_IsbL-0175_RLatLon0.09_PT000H.grib2 2026-05-06 02:40 229K
20260506T00Z_MSC_RDPS_GeopotentialHeight_IsbL-0200_RLatLon0.09_PT000H.grib2 2026-05-06 02:40 232K
20260506T00Z_MSC_RDPS_GeopotentialHeight_IsbL-0225_RLatLon0.09_PT000H.grib2 2026-05-06 02:40 233K
20260506T00Z_MSC_RDPS_GeopotentialHeight_IsbL-0250_RLatLon0.09_PT000H.grib2 2026-05-06 02:40 233K
20260506T00Z_MSC_RDPS_GeopotentialHeight_IsbL-0275_RLatLon0.09_PT000H.grib2 2026-05-06 02:40 232K
20260506T00Z_MSC_RDPS_GeopotentialHeight_IsbL-0300_RLatLon0.09_PT000H.grib2 2026-05-06 02:40 232K
20260506T00Z_MSC_RDPS_GeopotentialHeight_IsbL-0350_RLatLon0.09_PT000H.grib2 2026-05-06 02:40 230K
20260506T00Z_MSC_RDPS_GeopotentialHeight_IsbL-0400_RLatLon0.09_PT000H.grib2 2026-05-06 02:40 228K
20260506T00Z_MSC_RDPS_GeopotentialHeight_IsbL-0450_RLatLon0.09_PT000H.grib2 2026-05-06 02:40 300K
20260506T00Z_MSC_RDPS_GeopotentialHeight_IsbL-0500_RLatLon0.09_PT000H.grib2 2026-05-06 02:40 297K
20260506T00Z_MSC_RDPS_GeopotentialHeight_IsbL-0550_RLatLon0.09_PT000H.grib2 2026-05-06 02:40 295K
20260506T00Z_MSC_RDPS_GeopotentialHeight_IsbL-0600_RLatLon0.09_PT000H.grib2 2026-05-06 02:40 293K
20260506T00Z_MSC_RDPS_GeopotentialHeight_IsbL-0650_RLatLon0.09_PT000H.grib2 2026-05-06 02:40 262K
20260506T00Z_MSC_RDPS_GeopotentialHeight_IsbL-0700_RLatLon0.09_PT000H.grib2 2026-05-06 02:40 262K
20260506T00Z_MSC_RDPS_GeopotentialHeight_IsbL-0750_RLatLon0.09_PT000H.grib2 2026-05-06 02:40 346K
20260506T00Z_MSC_RDPS_GeopotentialHeight_IsbL-0800_RLatLon0.09_PT000H.grib2 2026-05-06 02:40 349K
20260506T00Z_MSC_RDPS_GeopotentialHeight_IsbL-0850_RLatLon0.09_PT000H.grib2 2026-05-06 02:40 352K
20260506T00Z_MSC_RDPS_GeopotentialHeight_IsbL-0875_RLatLon0.09_PT000H.grib2 2026-05-06 02:40 350K
20260506T00Z_MSC_RDPS_GeopotentialHeight_IsbL-0900_RLatLon0.09_PT000H.grib2 2026-05-06 02:40 352K
20260506T00Z_MSC_RDPS_GeopotentialHeight_IsbL-0925_RLatLon0.09_PT000H.grib2 2026-05-06 02:40 271K
20260506T00Z_MSC_RDPS_GeopotentialHeight_IsbL-0950_RLatLon0.09_PT000H.grib2 2026-05-06 02:40 273K
20260506T00Z_MSC_RDPS_GeopotentialHeight_IsbL-0970_RLatLon0.09_PT000H.grib2 2026-05-06 02:40 276K
20260506T00Z_MSC_RDPS_GeopotentialHeight_IsbL-0985_RLatLon0.09_PT000H.grib2 2026-05-06 02:40 280K
20260506T00Z_MSC_RDPS_GeopotentialHeight_IsbL-1000_RLatLon0.09_PT000H.grib2 2026-05-06 02:40 285K
20260506T00Z_MSC_RDPS_GeopotentialHeight_IsbL-1015_RLatLon0.09_PT000H.grib2 2026-05-06 02:40 292K
20260506T00Z_MSC_RDPS_GeopotentialHeight_Sfc_RLatLon0.09_PT000H.grib2 2026-05-06 02:40 295K
20260506T00Z_MSC_RDPS_HighLowPressure_MSL_RLatLon0.09_PT000H.json 2026-05-06 02:31 14K
20260506T00Z_MSC_RDPS_Humidex_Sfc_RLatLon0.09_PT000H.grib2 2026-05-06 02:40 2.1M
20260506T00Z_MSC_RDPS_KIndex_Sfc_RLatLon0.09_PT000H.grib2 2026-05-06 02:40 2.3M
20260506T00Z_MSC_RDPS_LandWaterProportion_Sfc_RLatLon0.09_PT000H.grib2 2026-05-06 02:40 156K
20260506T00Z_MSC_RDPS_LatentHeatNetFlux_Sfc_RLatLon0.09_PT000H.grib2 2026-05-06 02:40 296K
20260506T00Z_MSC_RDPS_LiftedIndex-MU-VT_IsbL-0500_RLatLon0.09_PT000H.grib2 2026-05-06 02:40 2.4M
20260506T00Z_MSC_RDPS_NetLongwaveRadiationFlux-Accum_Sfc_RLatLon0.09_PT000H.grib2 2026-05-06 02:40 217
20260506T00Z_MSC_RDPS_NetShortwaveRadiationFlux-Accum_Sfc_RLatLon0.09_PT000H.grib2 2026-05-06 02:40 217
20260506T00Z_MSC_RDPS_PlanetaryBoundaryLayerHeight_Sfc_RLatLon0.09_PT000H.grib2 2026-05-06 02:40 971K
20260506T00Z_MSC_RDPS_PrecipType-Instant_Sfc_RLatLon0.09_PT000H.grib2 2026-05-06 02:40 193
20260506T00Z_MSC_RDPS_Pressure_MSL_RLatLon0.09_PT000H.grib2 2026-05-06 02:40 317K
20260506T00Z_MSC_RDPS_Pressure_Sfc_RLatLon0.09_PT000H.grib2 2026-05-06 02:40 495K
20260506T00Z_MSC_RDPS_RadiativeTemp_Sfc_RLatLon0.09_PT000H.grib2 2026-05-06 02:40 269K
20260506T00Z_MSC_RDPS_RelativeHumidity_AGL-2m_RLatLon0.09_PT000H.grib2 2026-05-06 02:40 858K
20260506T00Z_MSC_RDPS_RelativeHumidity_IsbL-0010_RLatLon0.09_PT000H.grib2 2026-05-06 02:40 613K
20260506T00Z_MSC_RDPS_RelativeHumidity_IsbL-0020_RLatLon0.09_PT000H.grib2 2026-05-06 02:40 658K
20260506T00Z_MSC_RDPS_RelativeHumidity_IsbL-0030_RLatLon0.09_PT000H.grib2 2026-05-06 02:40 587K
20260506T00Z_MSC_RDPS_RelativeHumidity_IsbL-0050_RLatLon0.09_PT000H.grib2 2026-05-06 02:40 340K
20260506T00Z_MSC_RDPS_RelativeHumidity_IsbL-0100_RLatLon0.09_PT000H.grib2 2026-05-06 02:40 241K
20260506T00Z_MSC_RDPS_RelativeHumidity_IsbL-0150_RLatLon0.09_PT000H.grib2 2026-05-06 02:40 369K
20260506T00Z_MSC_RDPS_RelativeHumidity_IsbL-0175_RLatLon0.09_PT000H.grib2 2026-05-06 02:40 425K
20260506T00Z_MSC_RDPS_RelativeHumidity_IsbL-0200_RLatLon0.09_PT000H.grib2 2026-05-06 02:40 487K
20260506T00Z_MSC_RDPS_RelativeHumidity_IsbL-0225_RLatLon0.09_PT000H.grib2 2026-05-06 02:40 535K
20260506T00Z_MSC_RDPS_RelativeHumidity_IsbL-0250_RLatLon0.09_PT000H.grib2 2026-05-06 02:40 586K
20260506T00Z_MSC_RDPS_RelativeHumidity_IsbL-0275_RLatLon0.09_PT000H.grib2 2026-05-06 02:40 611K
20260506T00Z_MSC_RDPS_RelativeHumidity_IsbL-0300_RLatLon0.09_PT000H.grib2 2026-05-06 02:40 650K
20260506T00Z_MSC_RDPS_RelativeHumidity_IsbL-0350_RLatLon0.09_PT000H.grib2 2026-05-06 02:40 676K
20260506T00Z_MSC_RDPS_RelativeHumidity_IsbL-0400_RLatLon0.09_PT000H.grib2 2026-05-06 02:40 696K
20260506T00Z_MSC_RDPS_RelativeHumidity_IsbL-0450_RLatLon0.09_PT000H.grib2 2026-05-06 02:40 704K
20260506T00Z_MSC_RDPS_RelativeHumidity_IsbL-0500_RLatLon0.09_PT000H.grib2 2026-05-06 02:40 724K
20260506T00Z_MSC_RDPS_RelativeHumidity_IsbL-0550_RLatLon0.09_PT000H.grib2 2026-05-06 02:40 740K
20260506T00Z_MSC_RDPS_RelativeHumidity_IsbL-0600_RLatLon0.09_PT000H.grib2 2026-05-06 02:40 757K
20260506T00Z_MSC_RDPS_RelativeHumidity_IsbL-0650_RLatLon0.09_PT000H.grib2 2026-05-06 02:40 769K
20260506T00Z_MSC_RDPS_RelativeHumidity_IsbL-0700_RLatLon0.09_PT000H.grib2 2026-05-06 02:40 792K
20260506T00Z_MSC_RDPS_RelativeHumidity_IsbL-0750_RLatLon0.09_PT000H.grib2 2026-05-06 02:40 826K
20260506T00Z_MSC_RDPS_RelativeHumidity_IsbL-0800_RLatLon0.09_PT000H.grib2 2026-05-06 02:40 872K
20260506T00Z_MSC_RDPS_RelativeHumidity_IsbL-0850_RLatLon0.09_PT000H.grib2 2026-05-06 02:40 933K
20260506T00Z_MSC_RDPS_RelativeHumidity_IsbL-0875_RLatLon0.09_PT000H.grib2 2026-05-06 02:40 948K
20260506T00Z_MSC_RDPS_RelativeHumidity_IsbL-0900_RLatLon0.09_PT000H.grib2 2026-05-06 02:40 951K
20260506T00Z_MSC_RDPS_RelativeHumidity_IsbL-0925_RLatLon0.09_PT000H.grib2 2026-05-06 02:40 944K
20260506T00Z_MSC_RDPS_RelativeHumidity_IsbL-0950_RLatLon0.09_PT000H.grib2 2026-05-06 02:40 935K
20260506T00Z_MSC_RDPS_RelativeHumidity_IsbL-0970_RLatLon0.09_PT000H.grib2 2026-05-06 02:40 927K
20260506T00Z_MSC_RDPS_RelativeHumidity_IsbL-0985_RLatLon0.09_PT000H.grib2 2026-05-06 02:40 914K
20260506T00Z_MSC_RDPS_RelativeHumidity_IsbL-1000_RLatLon0.09_PT000H.grib2 2026-05-06 02:40 896K
20260506T00Z_MSC_RDPS_RelativeHumidity_IsbL-1015_RLatLon0.09_PT000H.grib2 2026-05-06 02:40 870K
20260506T00Z_MSC_RDPS_Runoff-Accum_Sfc_RLatLon0.09_PT000H.grib2 2026-05-06 02:40 193
20260506T00Z_MSC_RDPS_SWEATIndex_Sfc_RLatLon0.09_PT000H.grib2 2026-05-06 02:40 2.3M
20260506T00Z_MSC_RDPS_SeaIceFraction_Sfc_RLatLon0.09_PT000H.grib2 2026-05-06 02:40 176K
20260506T00Z_MSC_RDPS_SeaWaterTemp_Sfc_RLatLon0.09_PT000H.grib2 2026-05-06 02:40 275K
20260506T00Z_MSC_RDPS_SensibleHeatNetFlux_Sfc_RLatLon0.09_PT000H.grib2 2026-05-06 02:40 268K
20260506T00Z_MSC_RDPS_ShowalterIndex_IsbL-0500_RLatLon0.09_PT000H.grib2 2026-05-06 02:40 2.4M
20260506T00Z_MSC_RDPS_SkyTransparencyIndex_EAtm_RLatLon0.09_PT000H.grib2 2026-05-06 02:40 537K
20260506T00Z_MSC_RDPS_SnowDensity_Sfc_RLatLon0.09_PT000H.grib2 2026-05-06 02:40 163K
20260506T00Z_MSC_RDPS_SnowDepth_Sfc_RLatLon0.09_PT000H.grib2 2026-05-06 02:40 1.2M
20260506T00Z_MSC_RDPS_SoilTemp_DBS-0to10cm_RLatLon0.09_PT000H.grib2 2026-05-06 02:40 188K
20260506T00Z_MSC_RDPS_SoilTemp_Sfc_RLatLon0.09_PT000H.grib2 2026-05-06 02:40 439K
20260506T00Z_MSC_RDPS_SoilVolumetricIceContent_Sfc_RLatLon0.09_PT000H.grib2 2026-05-06 02:40 153K
20260506T00Z_MSC_RDPS_SoilVolumetricWaterContent_DBS-0to10cm_RLatLon0.09_PT000H.grib2 2026-05-06 02:40 286K
20260506T00Z_MSC_RDPS_SoilVolumetricWaterContent_DBS-0to1cm_RLatLon0.09_PT000H.grib2 2026-05-06 02:40 319K
20260506T00Z_MSC_RDPS_SpecificHumidity_AGL-120m_RLatLon0.09_PT000H.grib2 2026-05-06 02:40 425K
20260506T00Z_MSC_RDPS_SpecificHumidity_AGL-2m_RLatLon0.09_PT000H.grib2 2026-05-06 02:40 533K
20260506T00Z_MSC_RDPS_SpecificHumidity_AGL-40m_RLatLon0.09_PT000H.grib2 2026-05-06 02:40 442K
20260506T00Z_MSC_RDPS_SpecificHumidity_AGL-80m_RLatLon0.09_PT000H.grib2 2026-05-06 02:40 430K
20260506T00Z_MSC_RDPS_SpecificHumidity_IsbL-0001_RLatLon0.09_PT000H.grib2 2026-05-06 02:40 295K
20260506T00Z_MSC_RDPS_SpecificHumidity_IsbL-0005_RLatLon0.09_PT000H.grib2 2026-05-06 02:40 362K
20260506T00Z_MSC_RDPS_SpecificHumidity_IsbL-0010_RLatLon0.09_PT000H.grib2 2026-05-06 02:40 393K
20260506T00Z_MSC_RDPS_SpecificHumidity_IsbL-0020_RLatLon0.09_PT000H.grib2 2026-05-06 02:40 377K
20260506T00Z_MSC_RDPS_SpecificHumidity_IsbL-0030_RLatLon0.09_PT000H.grib2 2026-05-06 02:40 369K
20260506T00Z_MSC_RDPS_SpecificHumidity_IsbL-0050_RLatLon0.09_PT000H.grib2 2026-05-06 02:40 439K
20260506T00Z_MSC_RDPS_SpecificHumidity_IsbL-0100_RLatLon0.09_PT000H.grib2 2026-05-06 02:40 486K
20260506T00Z_MSC_RDPS_SpecificHumidity_IsbL-0150_RLatLon0.09_PT000H.grib2 2026-05-06 02:40 413K
20260506T00Z_MSC_RDPS_SpecificHumidity_IsbL-0175_RLatLon0.09_PT000H.grib2 2026-05-06 02:40 403K
20260506T00Z_MSC_RDPS_SpecificHumidity_IsbL-0200_RLatLon0.09_PT000H.grib2 2026-05-06 02:40 413K
20260506T00Z_MSC_RDPS_SpecificHumidity_IsbL-0225_RLatLon0.09_PT000H.grib2 2026-05-06 02:40 407K
20260506T00Z_MSC_RDPS_SpecificHumidity_IsbL-0250_RLatLon0.09_PT000H.grib2 2026-05-06 02:40 501K
20260506T00Z_MSC_RDPS_SpecificHumidity_IsbL-0275_RLatLon0.09_PT000H.grib2 2026-05-06 02:40 424K
20260506T00Z_MSC_RDPS_SpecificHumidity_IsbL-0300_RLatLon0.09_PT000H.grib2 2026-05-06 02:40 488K
20260506T00Z_MSC_RDPS_SpecificHumidity_IsbL-0350_RLatLon0.09_PT000H.grib2 2026-05-06 02:40 484K
20260506T00Z_MSC_RDPS_SpecificHumidity_IsbL-0400_RLatLon0.09_PT000H.grib2 2026-05-06 02:40 469K
20260506T00Z_MSC_RDPS_SpecificHumidity_IsbL-0450_RLatLon0.09_PT000H.grib2 2026-05-06 02:40 520K
20260506T00Z_MSC_RDPS_SpecificHumidity_IsbL-0500_RLatLon0.09_PT000H.grib2 2026-05-06 02:40 455K
20260506T00Z_MSC_RDPS_SpecificHumidity_IsbL-0550_RLatLon0.09_PT000H.grib2 2026-05-06 02:40 503K
20260506T00Z_MSC_RDPS_SpecificHumidity_IsbL-0600_RLatLon0.09_PT000H.grib2 2026-05-06 02:40 570K
20260506T00Z_MSC_RDPS_SpecificHumidity_IsbL-0650_RLatLon0.09_PT000H.grib2 2026-05-06 02:40 489K
20260506T00Z_MSC_RDPS_SpecificHumidity_IsbL-0700_RLatLon0.09_PT000H.grib2 2026-05-06 02:40 528K
20260506T00Z_MSC_RDPS_SpecificHumidity_IsbL-0750_RLatLon0.09_PT000H.grib2 2026-05-06 02:40 590K
20260506T00Z_MSC_RDPS_SpecificHumidity_IsbL-0800_RLatLon0.09_PT000H.grib2 2026-05-06 02:40 641K
20260506T00Z_MSC_RDPS_SpecificHumidity_IsbL-0850_RLatLon0.09_PT000H.grib2 2026-05-06 02:40 576K
20260506T00Z_MSC_RDPS_SpecificHumidity_IsbL-0875_RLatLon0.09_PT000H.grib2 2026-05-06 02:40 592K
20260506T00Z_MSC_RDPS_SpecificHumidity_IsbL-0900_RLatLon0.09_PT000H.grib2 2026-05-06 02:40 596K
20260506T00Z_MSC_RDPS_SpecificHumidity_IsbL-0925_RLatLon0.09_PT000H.grib2 2026-05-06 02:40 595K
20260506T00Z_MSC_RDPS_SpecificHumidity_IsbL-0950_RLatLon0.09_PT000H.grib2 2026-05-06 02:40 590K
20260506T00Z_MSC_RDPS_SpecificHumidity_IsbL-0970_RLatLon0.09_PT000H.grib2 2026-05-06 02:40 582K
20260506T00Z_MSC_RDPS_SpecificHumidity_IsbL-0985_RLatLon0.09_PT000H.grib2 2026-05-06 02:40 573K
20260506T00Z_MSC_RDPS_SpecificHumidity_IsbL-1000_RLatLon0.09_PT000H.grib2 2026-05-06 02:40 565K
20260506T00Z_MSC_RDPS_SpecificHumidity_IsbL-1015_RLatLon0.09_PT000H.grib2 2026-05-06 02:40 553K
20260506T00Z_MSC_RDPS_SpecificHumidity_Sfc_RLatLon0.09_PT000H.grib2 2026-05-06 02:40 599K
20260506T00Z_MSC_RDPS_StormRelativeHelicity_EtaL-10000_RLatLon0.09_PT000H.grib2 2026-05-06 02:40 1.1M
20260506T00Z_MSC_RDPS_StormSeverityIndex_EtaL-10000_RLatLon0.09_PT000H.grib2 2026-05-06 02:40 1.2M
20260506T00Z_MSC_RDPS_Thickness_IsbL-0850to0700_RLatLon0.09_PT000H.grib2 2026-05-06 02:40 186K
20260506T00Z_MSC_RDPS_Thickness_IsbL-1000to0500_RLatLon0.09_PT000H.grib2 2026-05-06 02:40 193K
20260506T00Z_MSC_RDPS_Thickness_IsbL-1000to0850_RLatLon0.09_PT000H.grib2 2026-05-06 02:40 174K
20260506T00Z_MSC_RDPS_TotalCloudCover_Sfc_RLatLon0.09_PT000H.grib2 2026-05-06 02:40 573K
20260506T00Z_MSC_RDPS_TotalTotalsIndex_Sfc_RLatLon0.09_PT000H.grib2 2026-05-06 02:40 2.2M
20260506T00Z_MSC_RDPS_UVIndex-ClearSky-Max24h_Sfc_RLatLon0.09_PT000H.grib2 2026-05-06 02:40 155K
20260506T00Z_MSC_RDPS_UVIndex-ClearSky_Sfc_RLatLon0.09_PT000H.grib2 2026-05-06 02:40 155K
20260506T00Z_MSC_RDPS_UVIndex-Max24h_Sfc_RLatLon0.09_PT000H.grib2 2026-05-06 02:40 351K
20260506T00Z_MSC_RDPS_UVIndex_Sfc_RLatLon0.09_PT000H.grib2 2026-05-06 02:40 351K
20260506T00Z_MSC_RDPS_UpwardLongwaveRadiationFlux_NTAtm_RLatLon0.09_PT000H.grib2 2026-05-06 02:40 476K
20260506T00Z_MSC_RDPS_UpwardShortwaveRadiationFlux_NTAtm_RLatLon0.09_PT000H.grib2 2026-05-06 02:40 317K
20260506T00Z_MSC_RDPS_VerticalVelocity_IsbL-0250_RLatLon0.09_PT000H.grib2 2026-05-06 02:40 430K
20260506T00Z_MSC_RDPS_VerticalVelocity_IsbL-0500_RLatLon0.09_PT000H.grib2 2026-05-06 02:40 536K
20260506T00Z_MSC_RDPS_VerticalVelocity_IsbL-0700_RLatLon0.09_PT000H.grib2 2026-05-06 02:40 504K
20260506T00Z_MSC_RDPS_VerticalVelocity_IsbL-0850_RLatLon0.09_PT000H.grib2 2026-05-06 02:40 563K
20260506T00Z_MSC_RDPS_VerticalWindShear_EtaL-6500_RLatLon0.09_PT000H.grib2 2026-05-06 02:40 1.2M
20260506T00Z_MSC_RDPS_WindChill_Sfc_RLatLon0.09_PT000H.grib2 2026-05-06 02:40 947K
20260506T00Z_MSC_RDPS_WindDir_AGL-10m_RLatLon0.09_PT000H.grib2 2026-05-06 02:40 805K
20260506T00Z_MSC_RDPS_WindDir_AGL-120m_RLatLon0.09_PT000H.grib2 2026-05-06 02:40 506K
20260506T00Z_MSC_RDPS_WindDir_AGL-40m_RLatLon0.09_PT000H.grib2 2026-05-06 02:40 536K
20260506T00Z_MSC_RDPS_WindDir_AGL-80m_RLatLon0.09_PT000H.grib2 2026-05-06 02:40 517K
20260506T00Z_MSC_RDPS_WindDir_IsbL-0001_RLatLon0.09_PT000H.grib2 2026-05-06 02:40 283K
20260506T00Z_MSC_RDPS_WindDir_IsbL-0005_RLatLon0.09_PT000H.grib2 2026-05-06 02:40 351K
20260506T00Z_MSC_RDPS_WindDir_IsbL-0010_RLatLon0.09_PT000H.grib2 2026-05-06 02:40 358K
20260506T00Z_MSC_RDPS_WindDir_IsbL-0020_RLatLon0.09_PT000H.grib2 2026-05-06 02:40 375K
20260506T00Z_MSC_RDPS_WindDir_IsbL-0030_RLatLon0.09_PT000H.grib2 2026-05-06 02:40 361K
20260506T00Z_MSC_RDPS_WindDir_IsbL-0050_RLatLon0.09_PT000H.grib2 2026-05-06 02:40 388K
20260506T00Z_MSC_RDPS_WindDir_IsbL-0100_RLatLon0.09_PT000H.grib2 2026-05-06 02:40 374K
20260506T00Z_MSC_RDPS_WindDir_IsbL-0150_RLatLon0.09_PT000H.grib2 2026-05-06 02:40 377K
20260506T00Z_MSC_RDPS_WindDir_IsbL-0175_RLatLon0.09_PT000H.grib2 2026-05-06 02:40 393K
20260506T00Z_MSC_RDPS_WindDir_IsbL-0200_RLatLon0.09_PT000H.grib2 2026-05-06 02:40 403K
20260506T00Z_MSC_RDPS_WindDir_IsbL-0225_RLatLon0.09_PT000H.grib2 2026-05-06 02:40 403K
20260506T00Z_MSC_RDPS_WindDir_IsbL-0250_RLatLon0.09_PT000H.grib2 2026-05-06 02:40 405K
20260506T00Z_MSC_RDPS_WindDir_IsbL-0275_RLatLon0.09_PT000H.grib2 2026-05-06 02:40 420K
20260506T00Z_MSC_RDPS_WindDir_IsbL-0300_RLatLon0.09_PT000H.grib2 2026-05-06 02:40 418K
20260506T00Z_MSC_RDPS_WindDir_IsbL-0350_RLatLon0.09_PT000H.grib2 2026-05-06 02:40 447K
20260506T00Z_MSC_RDPS_WindDir_IsbL-0400_RLatLon0.09_PT000H.grib2 2026-05-06 02:40 457K
20260506T00Z_MSC_RDPS_WindDir_IsbL-0450_RLatLon0.09_PT000H.grib2 2026-05-06 02:40 474K
20260506T00Z_MSC_RDPS_WindDir_IsbL-0500_RLatLon0.09_PT000H.grib2 2026-05-06 02:40 479K
20260506T00Z_MSC_RDPS_WindDir_IsbL-0550_RLatLon0.09_PT000H.grib2 2026-05-06 02:40 490K
20260506T00Z_MSC_RDPS_WindDir_IsbL-0600_RLatLon0.09_PT000H.grib2 2026-05-06 02:40 514K
20260506T00Z_MSC_RDPS_WindDir_IsbL-0650_RLatLon0.09_PT000H.grib2 2026-05-06 02:40 554K
20260506T00Z_MSC_RDPS_WindDir_IsbL-0700_RLatLon0.09_PT000H.grib2 2026-05-06 02:40 597K
20260506T00Z_MSC_RDPS_WindDir_IsbL-0750_RLatLon0.09_PT000H.grib2 2026-05-06 02:40 641K
20260506T00Z_MSC_RDPS_WindDir_IsbL-0800_RLatLon0.09_PT000H.grib2 2026-05-06 02:40 693K
20260506T00Z_MSC_RDPS_WindDir_IsbL-0850_RLatLon0.09_PT000H.grib2 2026-05-06 02:40 748K
20260506T00Z_MSC_RDPS_WindDir_IsbL-0875_RLatLon0.09_PT000H.grib2 2026-05-06 02:40 758K
20260506T00Z_MSC_RDPS_WindDir_IsbL-0900_RLatLon0.09_PT000H.grib2 2026-05-06 02:40 763K
20260506T00Z_MSC_RDPS_WindDir_IsbL-0925_RLatLon0.09_PT000H.grib2 2026-05-06 02:40 765K
20260506T00Z_MSC_RDPS_WindDir_IsbL-0950_RLatLon0.09_PT000H.grib2 2026-05-06 02:40 761K
20260506T00Z_MSC_RDPS_WindDir_IsbL-0970_RLatLon0.09_PT000H.grib2 2026-05-06 02:40 769K
20260506T00Z_MSC_RDPS_WindDir_IsbL-0985_RLatLon0.09_PT000H.grib2 2026-05-06 02:40 776K
20260506T00Z_MSC_RDPS_WindDir_IsbL-1000_RLatLon0.09_PT000H.grib2 2026-05-06 02:40 786K
20260506T00Z_MSC_RDPS_WindDir_IsbL-1015_RLatLon0.09_PT000H.grib2 2026-05-06 02:40 796K
20260506T00Z_MSC_RDPS_WindGust-Max_AGL-10m_RLatLon0.09_PT000H.grib2 2026-05-06 02:40 750K
20260506T00Z_MSC_RDPS_WindGust-Min_AGL-10m_RLatLon0.09_PT000H.grib2 2026-05-06 02:40 863K
20260506T00Z_MSC_RDPS_WindGust_AGL-10m_RLatLon0.09_PT000H.grib2 2026-05-06 02:40 860K
20260506T00Z_MSC_RDPS_WindSpeed_AGL-10m_RLatLon0.09_PT000H.grib2 2026-05-06 02:40 695K
20260506T00Z_MSC_RDPS_WindSpeed_AGL-120m_RLatLon0.09_PT000H.grib2 2026-05-06 02:40 492K
20260506T00Z_MSC_RDPS_WindSpeed_AGL-40m_RLatLon0.09_PT000H.grib2 2026-05-06 02:40 497K
20260506T00Z_MSC_RDPS_WindSpeed_AGL-80m_RLatLon0.09_PT000H.grib2 2026-05-06 02:40 486K
20260506T00Z_MSC_RDPS_WindSpeed_IsbL-0001_RLatLon0.09_PT000H.grib2 2026-05-06 02:40 242K
20260506T00Z_MSC_RDPS_WindSpeed_IsbL-0005_RLatLon0.09_PT000H.grib2 2026-05-06 02:40 354K
20260506T00Z_MSC_RDPS_WindSpeed_IsbL-0010_RLatLon0.09_PT000H.grib2 2026-05-06 02:40 280K
20260506T00Z_MSC_RDPS_WindSpeed_IsbL-0020_RLatLon0.09_PT000H.grib2 2026-05-06 02:40 377K
20260506T00Z_MSC_RDPS_WindSpeed_IsbL-0030_RLatLon0.09_PT000H.grib2 2026-05-06 02:40 285K
20260506T00Z_MSC_RDPS_WindSpeed_IsbL-0050_RLatLon0.09_PT000H.grib2 2026-05-06 02:40 311K
20260506T00Z_MSC_RDPS_WindSpeed_IsbL-0100_RLatLon0.09_PT000H.grib2 2026-05-06 02:40 412K
20260506T00Z_MSC_RDPS_WindSpeed_IsbL-0150_RLatLon0.09_PT000H.grib2 2026-05-06 02:40 324K
20260506T00Z_MSC_RDPS_WindSpeed_IsbL-0175_RLatLon0.09_PT000H.grib2 2026-05-06 02:40 371K
20260506T00Z_MSC_RDPS_WindSpeed_IsbL-0200_RLatLon0.09_PT000H.grib2 2026-05-06 02:40 384K
20260506T00Z_MSC_RDPS_WindSpeed_IsbL-0225_RLatLon0.09_PT000H.grib2 2026-05-06 02:40 387K
20260506T00Z_MSC_RDPS_WindSpeed_IsbL-0250_RLatLon0.09_PT000H.grib2 2026-05-06 02:40 388K
20260506T00Z_MSC_RDPS_WindSpeed_IsbL-0275_RLatLon0.09_PT000H.grib2 2026-05-06 02:40 401K
20260506T00Z_MSC_RDPS_WindSpeed_IsbL-0300_RLatLon0.09_PT000H.grib2 2026-05-06 02:40 404K
20260506T00Z_MSC_RDPS_WindSpeed_IsbL-0350_RLatLon0.09_PT000H.grib2 2026-05-06 02:40 418K
20260506T00Z_MSC_RDPS_WindSpeed_IsbL-0400_RLatLon0.09_PT000H.grib2 2026-05-06 02:40 399K
20260506T00Z_MSC_RDPS_WindSpeed_IsbL-0450_RLatLon0.09_PT000H.grib2 2026-05-06 02:40 400K
20260506T00Z_MSC_RDPS_WindSpeed_IsbL-0500_RLatLon0.09_PT000H.grib2 2026-05-06 02:40 399K
20260506T00Z_MSC_RDPS_WindSpeed_IsbL-0550_RLatLon0.09_PT000H.grib2 2026-05-06 02:40 401K
20260506T00Z_MSC_RDPS_WindSpeed_IsbL-0600_RLatLon0.09_PT000H.grib2 2026-05-06 02:40 514K
20260506T00Z_MSC_RDPS_WindSpeed_IsbL-0650_RLatLon0.09_PT000H.grib2 2026-05-06 02:40 530K
20260506T00Z_MSC_RDPS_WindSpeed_IsbL-0700_RLatLon0.09_PT000H.grib2 2026-05-06 02:40 591K
20260506T00Z_MSC_RDPS_WindSpeed_IsbL-0750_RLatLon0.09_PT000H.grib2 2026-05-06 02:40 618K
20260506T00Z_MSC_RDPS_WindSpeed_IsbL-0800_RLatLon0.09_PT000H.grib2 2026-05-06 02:40 656K
20260506T00Z_MSC_RDPS_WindSpeed_IsbL-0850_RLatLon0.09_PT000H.grib2 2026-05-06 02:40 705K
20260506T00Z_MSC_RDPS_WindSpeed_IsbL-0875_RLatLon0.09_PT000H.grib2 2026-05-06 02:40 720K
20260506T00Z_MSC_RDPS_WindSpeed_IsbL-0900_RLatLon0.09_PT000H.grib2 2026-05-06 02:40 730K
20260506T00Z_MSC_RDPS_WindSpeed_IsbL-0925_RLatLon0.09_PT000H.grib2 2026-05-06 02:40 738K
20260506T00Z_MSC_RDPS_WindSpeed_IsbL-0950_RLatLon0.09_PT000H.grib2 2026-05-06 02:40 738K
20260506T00Z_MSC_RDPS_WindSpeed_IsbL-0970_RLatLon0.09_PT000H.grib2 2026-05-06 02:40 737K
20260506T00Z_MSC_RDPS_WindSpeed_IsbL-0985_RLatLon0.09_PT000H.grib2 2026-05-06 02:40 730K
20260506T00Z_MSC_RDPS_WindSpeed_IsbL-1000_RLatLon0.09_PT000H.grib2 2026-05-06 02:40 719K
20260506T00Z_MSC_RDPS_WindSpeed_IsbL-1015_RLatLon0.09_PT000H.grib2 2026-05-06 02:40 697K
20260506T00Z_MSC_RDPS_WindU_AGL-10m_RLatLon0.09_PT000H.grib2 2026-05-06 02:40 357K
20260506T00Z_MSC_RDPS_WindU_AGL-120m_RLatLon0.09_PT000H.grib2 2026-05-06 02:40 469K
20260506T00Z_MSC_RDPS_WindU_AGL-40m_RLatLon0.09_PT000H.grib2 2026-05-06 02:40 483K
20260506T00Z_MSC_RDPS_WindU_AGL-80m_RLatLon0.09_PT000H.grib2 2026-05-06 02:40 476K
20260506T00Z_MSC_RDPS_WindU_IsbL-0001_RLatLon0.09_PT000H.grib2 2026-05-06 02:40 282K
20260506T00Z_MSC_RDPS_WindU_IsbL-0005_RLatLon0.09_PT000H.grib2 2026-05-06 02:40 263K
20260506T00Z_MSC_RDPS_WindU_IsbL-0010_RLatLon0.09_PT000H.grib2 2026-05-06 02:40 270K
20260506T00Z_MSC_RDPS_WindU_IsbL-0020_RLatLon0.09_PT000H.grib2 2026-05-06 02:40 280K
20260506T00Z_MSC_RDPS_WindU_IsbL-0030_RLatLon0.09_PT000H.grib2 2026-05-06 02:40 323K
20260506T00Z_MSC_RDPS_WindU_IsbL-0050_RLatLon0.09_PT000H.grib2 2026-05-06 02:40 315K
20260506T00Z_MSC_RDPS_WindU_IsbL-0100_RLatLon0.09_PT000H.grib2 2026-05-06 02:40 289K
20260506T00Z_MSC_RDPS_WindU_IsbL-0150_RLatLon0.09_PT000H.grib2 2026-05-06 02:40 348K
20260506T00Z_MSC_RDPS_WindU_IsbL-0175_RLatLon0.09_PT000H.grib2 2026-05-06 02:40 282K
20260506T00Z_MSC_RDPS_WindU_IsbL-0200_RLatLon0.09_PT000H.grib2 2026-05-06 02:40 292K
20260506T00Z_MSC_RDPS_WindU_IsbL-0225_RLatLon0.09_PT000H.grib2 2026-05-06 02:40 293K
20260506T00Z_MSC_RDPS_WindU_IsbL-0250_RLatLon0.09_PT000H.grib2 2026-05-06 02:40 292K
20260506T00Z_MSC_RDPS_WindU_IsbL-0275_RLatLon0.09_PT000H.grib2 2026-05-06 02:40 302K
20260506T00Z_MSC_RDPS_WindU_IsbL-0300_RLatLon0.09_PT000H.grib2 2026-05-06 02:40 303K
20260506T00Z_MSC_RDPS_WindU_IsbL-0350_RLatLon0.09_PT000H.grib2 2026-05-06 02:40 315K
20260506T00Z_MSC_RDPS_WindU_IsbL-0400_RLatLon0.09_PT000H.grib2 2026-05-06 02:40 409K
20260506T00Z_MSC_RDPS_WindU_IsbL-0450_RLatLon0.09_PT000H.grib2 2026-05-06 02:40 410K
20260506T00Z_MSC_RDPS_WindU_IsbL-0500_RLatLon0.09_PT000H.grib2 2026-05-06 02:40 411K
20260506T00Z_MSC_RDPS_WindU_IsbL-0550_RLatLon0.09_PT000H.grib2 2026-05-06 02:40 413K
20260506T00Z_MSC_RDPS_WindU_IsbL-0600_RLatLon0.09_PT000H.grib2 2026-05-06 02:40 420K
20260506T00Z_MSC_RDPS_WindU_IsbL-0650_RLatLon0.09_PT000H.grib2 2026-05-06 02:40 412K
20260506T00Z_MSC_RDPS_WindU_IsbL-0700_RLatLon0.09_PT000H.grib2 2026-05-06 02:40 429K
20260506T00Z_MSC_RDPS_WindU_IsbL-0750_RLatLon0.09_PT000H.grib2 2026-05-06 02:40 451K
20260506T00Z_MSC_RDPS_WindU_IsbL-0800_RLatLon0.09_PT000H.grib2 2026-05-06 02:40 481K
20260506T00Z_MSC_RDPS_WindU_IsbL-0850_RLatLon0.09_PT000H.grib2 2026-05-06 02:40 522K
20260506T00Z_MSC_RDPS_WindU_IsbL-0875_RLatLon0.09_PT000H.grib2 2026-05-06 02:40 547K
20260506T00Z_MSC_RDPS_WindU_IsbL-0900_RLatLon0.09_PT000H.grib2 2026-05-06 02:40 553K
20260506T00Z_MSC_RDPS_WindU_IsbL-0925_RLatLon0.09_PT000H.grib2 2026-05-06 02:40 543K
20260506T00Z_MSC_RDPS_WindU_IsbL-0950_RLatLon0.09_PT000H.grib2 2026-05-06 02:40 540K
20260506T00Z_MSC_RDPS_WindU_IsbL-0970_RLatLon0.09_PT000H.grib2 2026-05-06 02:40 536K
20260506T00Z_MSC_RDPS_WindU_IsbL-0985_RLatLon0.09_PT000H.grib2 2026-05-06 02:40 656K
20260506T00Z_MSC_RDPS_WindU_IsbL-1000_RLatLon0.09_PT000H.grib2 2026-05-06 02:40 646K
20260506T00Z_MSC_RDPS_WindU_IsbL-1015_RLatLon0.09_PT000H.grib2 2026-05-06 02:40 680K
20260506T00Z_MSC_RDPS_WindV_AGL-10m_RLatLon0.09_PT000H.grib2 2026-05-06 02:40 360K
20260506T00Z_MSC_RDPS_WindV_AGL-120m_RLatLon0.09_PT000H.grib2 2026-05-06 02:40 369K
20260506T00Z_MSC_RDPS_WindV_AGL-40m_RLatLon0.09_PT000H.grib2 2026-05-06 02:40 489K
20260506T00Z_MSC_RDPS_WindV_AGL-80m_RLatLon0.09_PT000H.grib2 2026-05-06 02:40 376K
20260506T00Z_MSC_RDPS_WindV_IsbL-0001_RLatLon0.09_PT000H.grib2 2026-05-06 02:40 283K
20260506T00Z_MSC_RDPS_WindV_IsbL-0005_RLatLon0.09_PT000H.grib2 2026-05-06 02:40 265K
20260506T00Z_MSC_RDPS_WindV_IsbL-0010_RLatLon0.09_PT000H.grib2 2026-05-06 02:40 271K
20260506T00Z_MSC_RDPS_WindV_IsbL-0020_RLatLon0.09_PT000H.grib2 2026-05-06 02:40 280K
20260506T00Z_MSC_RDPS_WindV_IsbL-0030_RLatLon0.09_PT000H.grib2 2026-05-06 02:40 281K
20260506T00Z_MSC_RDPS_WindV_IsbL-0050_RLatLon0.09_PT000H.grib2 2026-05-06 02:40 302K
20260506T00Z_MSC_RDPS_WindV_IsbL-0100_RLatLon0.09_PT000H.grib2 2026-05-06 02:40 369K
20260506T00Z_MSC_RDPS_WindV_IsbL-0150_RLatLon0.09_PT000H.grib2 2026-05-06 02:40 346K
20260506T00Z_MSC_RDPS_WindV_IsbL-0175_RLatLon0.09_PT000H.grib2 2026-05-06 02:40 281K
20260506T00Z_MSC_RDPS_WindV_IsbL-0200_RLatLon0.09_PT000H.grib2 2026-05-06 02:40 290K
20260506T00Z_MSC_RDPS_WindV_IsbL-0225_RLatLon0.09_PT000H.grib2 2026-05-06 02:40 293K
20260506T00Z_MSC_RDPS_WindV_IsbL-0250_RLatLon0.09_PT000H.grib2 2026-05-06 02:40 292K
20260506T00Z_MSC_RDPS_WindV_IsbL-0275_RLatLon0.09_PT000H.grib2 2026-05-06 02:40 303K
20260506T00Z_MSC_RDPS_WindV_IsbL-0300_RLatLon0.09_PT000H.grib2 2026-05-06 02:40 303K
20260506T00Z_MSC_RDPS_WindV_IsbL-0350_RLatLon0.09_PT000H.grib2 2026-05-06 02:40 313K
20260506T00Z_MSC_RDPS_WindV_IsbL-0400_RLatLon0.09_PT000H.grib2 2026-05-06 02:40 317K
20260506T00Z_MSC_RDPS_WindV_IsbL-0450_RLatLon0.09_PT000H.grib2 2026-05-06 02:40 317K
20260506T00Z_MSC_RDPS_WindV_IsbL-0500_RLatLon0.09_PT000H.grib2 2026-05-06 02:40 408K
20260506T00Z_MSC_RDPS_WindV_IsbL-0550_RLatLon0.09_PT000H.grib2 2026-05-06 02:40 410K
20260506T00Z_MSC_RDPS_WindV_IsbL-0600_RLatLon0.09_PT000H.grib2 2026-05-06 02:40 417K
20260506T00Z_MSC_RDPS_WindV_IsbL-0650_RLatLon0.09_PT000H.grib2 2026-05-06 02:40 431K
20260506T00Z_MSC_RDPS_WindV_IsbL-0700_RLatLon0.09_PT000H.grib2 2026-05-06 02:40 447K
20260506T00Z_MSC_RDPS_WindV_IsbL-0750_RLatLon0.09_PT000H.grib2 2026-05-06 02:40 449K
20260506T00Z_MSC_RDPS_WindV_IsbL-0800_RLatLon0.09_PT000H.grib2 2026-05-06 02:40 479K
20260506T00Z_MSC_RDPS_WindV_IsbL-0850_RLatLon0.09_PT000H.grib2 2026-05-06 02:40 516K
20260506T00Z_MSC_RDPS_WindV_IsbL-0875_RLatLon0.09_PT000H.grib2 2026-05-06 02:40 528K
20260506T00Z_MSC_RDPS_WindV_IsbL-0900_RLatLon0.09_PT000H.grib2 2026-05-06 02:40 536K
20260506T00Z_MSC_RDPS_WindV_IsbL-0925_RLatLon0.09_PT000H.grib2 2026-05-06 02:40 542K
20260506T00Z_MSC_RDPS_WindV_IsbL-0950_RLatLon0.09_PT000H.grib2 2026-05-06 02:40 552K
20260506T00Z_MSC_RDPS_WindV_IsbL-0970_RLatLon0.09_PT000H.grib2 2026-05-06 02:40 551K
20260506T00Z_MSC_RDPS_WindV_IsbL-0985_RLatLon0.09_PT000H.grib2 2026-05-06 02:40 533K
20260506T00Z_MSC_RDPS_WindV_IsbL-1000_RLatLon0.09_PT000H.grib2 2026-05-06 02:40 524K
20260506T00Z_MSC_RDPS_WindV_IsbL-1015_RLatLon0.09_PT000H.grib2 2026-05-06 02:40 640K